sensor_id;sensor_type;location;lat;lon;timestamp;P1;durP1;ratioP1;P2;durP2;ratioP2
21831;SDS011;11078;49.872;6.188;2022-08-19T00:00:34;9.35;;;6.00;;
21831;SDS011;11078;49.872;6.188;2022-08-19T00:03:03;6.80;;;5.82;;
21831;SDS011;11078;49.872;6.188;2022-08-19T00:05:29;7.75;;;6.57;;
21831;SDS011;11078;49.872;6.188;2022-08-19T00:07:56;6.57;;;5.57;;
21831;SDS011;11078;49.872;6.188;2022-08-19T00:10:22;6.18;;;5.50;;
21831;SDS011;11078;49.872;6.188;2022-08-19T00:12:50;8.95;;;5.85;;
21831;SDS011;11078;49.872;6.188;2022-08-19T00:15:18;7.72;;;5.93;;
21831;SDS011;11078;49.872;6.188;2022-08-19T00:17:45;8.88;;;6.20;;
21831;SDS011;11078;49.872;6.188;2022-08-19T00:20:14;8.13;;;6.28;;
21831;SDS011;11078;49.872;6.188;2022-08-19T00:22:42;6.22;;;5.50;;
21831;SDS011;11078;49.872;6.188;2022-08-19T00:25:10;9.32;;;6.13;;
21831;SDS011;11078;49.872;6.188;2022-08-19T00:27:39;7.00;;;6.13;;
21831;SDS011;11078;49.872;6.188;2022-08-19T00:30:06;9.57;;;6.07;;
21831;SDS011;11078;49.872;6.188;2022-08-19T00:32:35;7.55;;;6.13;;
21831;SDS011;11078;49.872;6.188;2022-08-19T00:35:01;5.90;;;5.30;;
21831;SDS011;11078;49.872;6.188;2022-08-19T00:37:28;6.63;;;5.78;;
21831;SDS011;11078;49.872;6.188;2022-08-19T00:39:54;7.53;;;5.82;;
21831;SDS011;11078;49.872;6.188;2022-08-19T00:42:20;6.93;;;5.68;;
21831;SDS011;11078;49.872;6.188;2022-08-19T00:44:47;7.18;;;6.15;;
21831;SDS011;11078;49.872;6.188;2022-08-19T00:47:14;6.82;;;5.95;;
21831;SDS011;11078;49.872;6.188;2022-08-19T00:49:42;7.32;;;5.68;;
21831;SDS011;11078;49.872;6.188;2022-08-19T00:52:17;9.25;;;6.00;;
21831;SDS011;11078;49.872;6.188;2022-08-19T00:54:47;6.50;;;5.80;;
21831;SDS011;11078;49.872;6.188;2022-08-19T00:57:15;7.10;;;6.13;;
21831;SDS011;11078;49.872;6.188;2022-08-19T00:59:46;6.47;;;5.63;;
21831;SDS011;11078;49.872;6.188;2022-08-19T01:02:17;8.55;;;5.95;;
21831;SDS011;11078;49.872;6.188;2022-08-19T01:04:44;6.75;;;5.78;;
21831;SDS011;11078;49.872;6.188;2022-08-19T01:07:10;7.22;;;6.13;;
21831;SDS011;11078;49.872;6.188;2022-08-19T01:09:36;7.10;;;6.22;;
21831;SDS011;11078;49.872;6.188;2022-08-19T01:12:02;7.88;;;6.05;;
21831;SDS011;11078;49.872;6.188;2022-08-19T01:14:30;10.32;;;5.47;;
21831;SDS011;11078;49.872;6.188;2022-08-19T01:16:56;6.32;;;5.35;;
21831;SDS011;11078;49.872;6.188;2022-08-19T01:19:27;6.80;;;5.90;;
21831;SDS011;11078;49.872;6.188;2022-08-19T01:22:00;6.85;;;6.15;;
21831;SDS011;11078;49.872;6.188;2022-08-19T01:24:30;7.72;;;5.78;;
21831;SDS011;11078;49.872;6.188;2022-08-19T01:26:56;8.40;;;6.47;;
21831;SDS011;11078;49.872;6.188;2022-08-19T01:29:23;7.20;;;6.05;;
21831;SDS011;11078;49.872;6.188;2022-08-19T01:31:49;8.10;;;6.25;;
21831;SDS011;11078;49.872;6.188;2022-08-19T01:34:17;6.63;;;6.03;;
21831;SDS011;11078;49.872;6.188;2022-08-19T01:36:45;7.00;;;5.80;;
21831;SDS011;11078;49.872;6.188;2022-08-19T01:39:14;6.88;;;5.72;;
21831;SDS011;11078;49.872;6.188;2022-08-19T01:41:45;6.72;;;6.03;;
21831;SDS011;11078;49.872;6.188;2022-08-19T01:44:11;7.20;;;5.85;;
21831;SDS011;11078;49.872;6.188;2022-08-19T01:46:37;9.15;;;5.93;;
21831;SDS011;11078;49.872;6.188;2022-08-19T01:49:04;8.45;;;6.22;;
21831;SDS011;11078;49.872;6.188;2022-08-19T01:51:31;6.47;;;5.82;;
21831;SDS011;11078;49.872;6.188;2022-08-19T01:53:57;7.40;;;6.38;;
21831;SDS011;11078;49.872;6.188;2022-08-19T01:56:23;7.68;;;5.88;;
21831;SDS011;11078;49.872;6.188;2022-08-19T01:58:51;7.28;;;5.95;;
21831;SDS011;11078;49.872;6.188;2022-08-19T02:01:22;7.03;;;6.15;;
21831;SDS011;11078;49.872;6.188;2022-08-19T02:03:48;7.43;;;5.93;;
21831;SDS011;11078;49.872;6.188;2022-08-19T02:06:14;8.00;;;6.53;;
21831;SDS011;11078;49.872;6.188;2022-08-19T02:08:42;8.02;;;5.78;;
21831;SDS011;11078;49.872;6.188;2022-08-19T02:11:17;8.05;;;6.22;;
21831;SDS011;11078;49.872;6.188;2022-08-19T02:13:52;6.50;;;5.90;;
21831;SDS011;11078;49.872;6.188;2022-08-19T02:16:19;6.75;;;5.95;;
21831;SDS011;11078;49.872;6.188;2022-08-19T02:18:46;10.13;;;6.50;;
21831;SDS011;11078;49.872;6.188;2022-08-19T02:21:14;7.03;;;6.32;;
21831;SDS011;11078;49.872;6.188;2022-08-19T02:23:41;8.38;;;6.30;;
21831;SDS011;11078;49.872;6.188;2022-08-19T02:26:08;7.88;;;6.63;;
21831;SDS011;11078;49.872;6.188;2022-08-19T02:28:34;6.85;;;6.15;;
21831;SDS011;11078;49.872;6.188;2022-08-19T02:31:01;8.02;;;6.85;;
21831;SDS011;11078;49.872;6.188;2022-08-19T02:33:28;8.73;;;6.70;;
21831;SDS011;11078;49.872;6.188;2022-08-19T02:35:54;8.13;;;6.22;;
21831;SDS011;11078;49.872;6.188;2022-08-19T02:38:20;10.65;;;6.32;;
21831;SDS011;11078;49.872;6.188;2022-08-19T02:40:55;7.63;;;6.38;;
21831;SDS011;11078;49.872;6.188;2022-08-19T02:43:26;7.28;;;6.18;;
21831;SDS011;11078;49.872;6.188;2022-08-19T02:45:53;7.47;;;6.38;;
21831;SDS011;11078;49.872;6.188;2022-08-19T02:48:21;7.22;;;6.38;;
21831;SDS011;11078;49.872;6.188;2022-08-19T02:50:49;9.55;;;6.93;;
21831;SDS011;11078;49.872;6.188;2022-08-19T02:53:24;7.30;;;6.57;;
21831;SDS011;11078;49.872;6.188;2022-08-19T02:55:52;7.15;;;5.90;;
21831;SDS011;11078;49.872;6.188;2022-08-19T02:58:19;8.88;;;6.82;;
21831;SDS011;11078;49.872;6.188;2022-08-19T03:00:47;11.52;;;6.53;;
21831;SDS011;11078;49.872;6.188;2022-08-19T03:03:16;8.18;;;6.45;;
21831;SDS011;11078;49.872;6.188;2022-08-19T03:05:43;7.60;;;6.30;;
21831;SDS011;11078;49.872;6.188;2022-08-19T03:08:12;7.80;;;6.45;;
21831;SDS011;11078;49.872;6.188;2022-08-19T03:10:40;7.82;;;6.38;;
21831;SDS011;11078;49.872;6.188;2022-08-19T03:13:10;7.47;;;6.60;;
21831;SDS011;11078;49.872;6.188;2022-08-19T03:15:39;7.25;;;6.18;;
21831;SDS011;11078;49.872;6.188;2022-08-19T03:18:06;7.40;;;6.30;;
21831;SDS011;11078;49.872;6.188;2022-08-19T03:20:32;6.47;;;5.78;;
21831;SDS011;11078;49.872;6.188;2022-08-19T03:22:58;7.65;;;6.60;;
21831;SDS011;11078;49.872;6.188;2022-08-19T03:25:24;7.82;;;6.47;;
21831;SDS011;11078;49.872;6.188;2022-08-19T03:27:50;7.93;;;6.57;;
21831;SDS011;11078;49.872;6.188;2022-08-19T03:30:16;7.85;;;6.82;;
21831;SDS011;11078;49.872;6.188;2022-08-19T03:32:42;8.98;;;6.85;;
21831;SDS011;11078;49.872;6.188;2022-08-19T03:35:08;9.82;;;6.78;;
21831;SDS011;11078;49.872;6.188;2022-08-19T03:37:34;10.13;;;6.70;;
21831;SDS011;11078;49.872;6.188;2022-08-19T03:40:00;10.40;;;6.80;;
21831;SDS011;11078;49.872;6.188;2022-08-19T03:42:28;8.40;;;6.70;;
21831;SDS011;11078;49.872;6.188;2022-08-19T03:44:54;8.45;;;6.82;;
21831;SDS011;11078;49.872;6.188;2022-08-19T03:47:20;8.10;;;6.65;;
21831;SDS011;11078;49.872;6.188;2022-08-19T03:49:46;7.93;;;6.85;;
21831;SDS011;11078;49.872;6.188;2022-08-19T03:52:12;8.77;;;6.82;;
21831;SDS011;11078;49.872;6.188;2022-08-19T03:54:39;7.50;;;6.20;;
21831;SDS011;11078;49.872;6.188;2022-08-19T03:57:05;8.25;;;7.13;;
21831;SDS011;11078;49.872;6.188;2022-08-19T03:59:32;8.25;;;6.40;;
21831;SDS011;11078;49.872;6.188;2022-08-19T04:02:01;8.32;;;6.72;;
21831;SDS011;11078;49.872;6.188;2022-08-19T04:04:32;8.07;;;7.07;;
21831;SDS011;11078;49.872;6.188;2022-08-19T04:06:58;7.93;;;6.63;;
21831;SDS011;11078;49.872;6.188;2022-08-19T04:09:24;9.98;;;6.38;;
21831;SDS011;11078;49.872;6.188;2022-08-19T04:11:51;7.85;;;6.78;;
21831;SDS011;11078;49.872;6.188;2022-08-19T04:14:20;8.05;;;6.85;;
21831;SDS011;11078;49.872;6.188;2022-08-19T04:16:49;11.38;;;7.03;;
21831;SDS011;11078;49.872;6.188;2022-08-19T04:19:16;8.05;;;6.78;;
21831;SDS011;11078;49.872;6.188;2022-08-19T04:21:45;8.90;;;6.68;;
21831;SDS011;11078;49.872;6.188;2022-08-19T04:24:15;7.10;;;6.40;;
21831;SDS011;11078;49.872;6.188;2022-08-19T04:26:42;7.80;;;6.30;;
21831;SDS011;11078;49.872;6.188;2022-08-19T04:29:10;9.57;;;6.40;;
21831;SDS011;11078;49.872;6.188;2022-08-19T04:31:39;9.55;;;6.68;;
21831;SDS011;11078;49.872;6.188;2022-08-19T04:34:07;8.77;;;7.18;;
21831;SDS011;11078;49.872;6.188;2022-08-19T04:36:36;8.25;;;7.03;;
21831;SDS011;11078;49.872;6.188;2022-08-19T04:39:04;9.02;;;6.53;;
21831;SDS011;11078;49.872;6.188;2022-08-19T04:41:33;9.25;;;6.95;;
21831;SDS011;11078;49.872;6.188;2022-08-19T04:44:14;11.15;;;7.28;;
21831;SDS011;11078;49.872;6.188;2022-08-19T04:46:43;8.52;;;7.00;;
21831;SDS011;11078;49.872;6.188;2022-08-19T04:49:12;10.82;;;7.57;;
21831;SDS011;11078;49.872;6.188;2022-08-19T04:51:39;8.50;;;7.40;;
21831;SDS011;11078;49.872;6.188;2022-08-19T04:54:07;8.80;;;6.50;;
21831;SDS011;11078;49.872;6.188;2022-08-19T04:56:33;9.23;;;8.05;;
21831;SDS011;11078;49.872;6.188;2022-08-19T04:58:59;8.10;;;7.15;;
21831;SDS011;11078;49.872;6.188;2022-08-19T05:01:30;8.30;;;7.50;;
21831;SDS011;11078;49.872;6.188;2022-08-19T05:03:59;10.13;;;7.35;;
21831;SDS011;11078;49.872;6.188;2022-08-19T05:06:26;7.80;;;7.00;;
21831;SDS011;11078;49.872;6.188;2022-08-19T05:08:53;9.77;;;8.13;;
21831;SDS011;11078;49.872;6.188;2022-08-19T05:11:22;7.80;;;6.90;;
21831;SDS011;11078;49.872;6.188;2022-08-19T05:13:51;8.60;;;7.30;;
21831;SDS011;11078;49.872;6.188;2022-08-19T05:16:19;8.27;;;7.38;;
21831;SDS011;11078;49.872;6.188;2022-08-19T05:18:46;9.85;;;7.53;;
21831;SDS011;11078;49.872;6.188;2022-08-19T05:21:28;11.13;;;7.15;;
21831;SDS011;11078;49.872;6.188;2022-08-19T05:24:10;8.77;;;7.53;;
21831;SDS011;11078;49.872;6.188;2022-08-19T05:26:38;8.50;;;7.03;;
21831;SDS011;11078;49.872;6.188;2022-08-19T05:29:06;8.27;;;7.20;;
21831;SDS011;11078;49.872;6.188;2022-08-19T05:31:34;9.10;;;7.57;;
21831;SDS011;11078;49.872;6.188;2022-08-19T05:34:01;11.07;;;8.05;;
21831;SDS011;11078;49.872;6.188;2022-08-19T05:36:29;11.57;;;7.80;;
21831;SDS011;11078;49.872;6.188;2022-08-19T05:39:04;12.73;;;8.02;;
21831;SDS011;11078;49.872;6.188;2022-08-19T05:41:31;8.93;;;7.35;;
21831;SDS011;11078;49.872;6.188;2022-08-19T05:43:57;9.68;;;8.02;;
21831;SDS011;11078;49.872;6.188;2022-08-19T05:46:26;10.32;;;8.07;;
21831;SDS011;11078;49.872;6.188;2022-08-19T05:48:52;11.60;;;8.43;;
21831;SDS011;11078;49.872;6.188;2022-08-19T05:51:21;13.27;;;8.30;;
21831;SDS011;11078;49.872;6.188;2022-08-19T05:53:49;10.45;;;8.32;;
21831;SDS011;11078;49.872;6.188;2022-08-19T05:56:16;12.52;;;8.27;;
21831;SDS011;11078;49.872;6.188;2022-08-19T05:58:44;10.93;;;9.50;;
21831;SDS011;11078;49.872;6.188;2022-08-19T06:01:11;12.55;;;8.13;;
21831;SDS011;11078;49.872;6.188;2022-08-19T06:03:39;12.15;;;8.40;;
21831;SDS011;11078;49.872;6.188;2022-08-19T06:06:06;10.45;;;8.50;;
21831;SDS011;11078;49.872;6.188;2022-08-19T06:08:34;12.75;;;9.13;;
21831;SDS011;11078;49.872;6.188;2022-08-19T06:13:51;10.88;;;8.80;;
21831;SDS011;11078;49.872;6.188;2022-08-19T06:16:18;10.82;;;9.00;;
21831;SDS011;11078;49.872;6.188;2022-08-19T06:18:49;11.20;;;9.15;;
21831;SDS011;11078;49.872;6.188;2022-08-19T06:21:17;9.70;;;8.65;;
21831;SDS011;11078;49.872;6.188;2022-08-19T06:23:45;10.48;;;8.65;;
21831;SDS011;11078;49.872;6.188;2022-08-19T06:26:12;10.65;;;8.93;;
21831;SDS011;11078;49.872;6.188;2022-08-19T06:28:40;12.25;;;9.30;;
21831;SDS011;11078;49.872;6.188;2022-08-19T06:31:10;13.95;;;9.85;;
21831;SDS011;11078;49.872;6.188;2022-08-19T06:33:37;13.40;;;10.52;;
21831;SDS011;11078;49.872;6.188;2022-08-19T06:36:04;12.00;;;9.55;;
21831;SDS011;11078;49.872;6.188;2022-08-19T06:38:31;11.70;;;9.77;;
21831;SDS011;11078;49.872;6.188;2022-08-19T06:41:00;12.30;;;9.75;;
21831;SDS011;11078;49.872;6.188;2022-08-19T06:43:29;14.02;;;9.90;;
21831;SDS011;11078;49.872;6.188;2022-08-19T06:45:55;16.65;;;10.90;;
21831;SDS011;11078;49.872;6.188;2022-08-19T06:48:21;16.50;;;10.70;;
21831;SDS011;11078;49.872;6.188;2022-08-19T06:50:48;15.18;;;11.07;;
21831;SDS011;11078;49.872;6.188;2022-08-19T06:53:16;17.63;;;11.38;;
21831;SDS011;11078;49.872;6.188;2022-08-19T06:55:44;15.35;;;11.77;;
21831;SDS011;11078;49.872;6.188;2022-08-19T06:58:11;16.67;;;11.10;;
21831;SDS011;11078;49.872;6.188;2022-08-19T07:00:37;16.45;;;10.88;;
21831;SDS011;11078;49.872;6.188;2022-08-19T07:03:04;15.00;;;10.63;;
21831;SDS011;11078;49.872;6.188;2022-08-19T07:05:30;14.18;;;10.35;;
21831;SDS011;11078;49.872;6.188;2022-08-19T07:07:56;14.57;;;11.13;;
21831;SDS011;11078;49.872;6.188;2022-08-19T07:10:22;14.90;;;10.60;;
21831;SDS011;11078;49.872;6.188;2022-08-19T07:12:48;14.95;;;11.38;;
21831;SDS011;11078;49.872;6.188;2022-08-19T07:15:16;14.18;;;11.30;;
21831;SDS011;11078;49.872;6.188;2022-08-19T07:17:42;17.98;;;13.02;;
21831;SDS011;11078;49.872;6.188;2022-08-19T07:20:09;18.17;;;12.80;;
21831;SDS011;11078;49.872;6.188;2022-08-19T07:22:36;20.95;;;13.90;;
21831;SDS011;11078;49.872;6.188;2022-08-19T07:25:07;20.17;;;13.88;;
21831;SDS011;11078;49.872;6.188;2022-08-19T07:27:34;21.42;;;14.52;;
21831;SDS011;11078;49.872;6.188;2022-08-19T07:30:00;20.50;;;14.40;;
21831;SDS011;11078;49.872;6.188;2022-08-19T07:32:27;21.00;;;14.60;;
21831;SDS011;11078;49.872;6.188;2022-08-19T07:34:55;19.75;;;14.00;;
21831;SDS011;11078;49.872;6.188;2022-08-19T07:37:21;20.58;;;14.32;;
21831;SDS011;11078;49.872;6.188;2022-08-19T07:39:47;24.85;;;15.35;;
21831;SDS011;11078;49.872;6.188;2022-08-19T07:42:14;18.92;;;14.13;;
21831;SDS011;11078;49.872;6.188;2022-08-19T07:44:40;19.70;;;14.13;;
21831;SDS011;11078;49.872;6.188;2022-08-19T07:47:06;20.67;;;13.80;;
21831;SDS011;11078;49.872;6.188;2022-08-19T07:49:33;19.17;;;13.90;;
21831;SDS011;11078;49.872;6.188;2022-08-19T07:52:00;19.70;;;13.82;;
21831;SDS011;11078;49.872;6.188;2022-08-19T07:54:31;19.58;;;13.10;;
21831;SDS011;11078;49.872;6.188;2022-08-19T07:57:01;19.35;;;13.90;;
21831;SDS011;11078;49.872;6.188;2022-08-19T07:59:28;23.10;;;14.07;;
21831;SDS011;11078;49.872;6.188;2022-08-19T08:01:57;16.08;;;12.70;;
21831;SDS011;11078;49.872;6.188;2022-08-19T08:04:26;18.65;;;13.35;;
21831;SDS011;11078;49.872;6.188;2022-08-19T08:07:08;16.27;;;13.20;;
21831;SDS011;11078;49.872;6.188;2022-08-19T08:09:50;19.08;;;14.13;;
21831;SDS011;11078;49.872;6.188;2022-08-19T08:12:19;18.10;;;13.57;;
21831;SDS011;11078;49.872;6.188;2022-08-19T08:14:51;16.35;;;12.30;;
21831;SDS011;11078;49.872;6.188;2022-08-19T08:17:21;16.17;;;12.07;;
21831;SDS011;11078;49.872;6.188;2022-08-19T08:19:48;20.10;;;12.80;;
21831;SDS011;11078;49.872;6.188;2022-08-19T08:22:16;18.75;;;12.35;;
21831;SDS011;11078;49.872;6.188;2022-08-19T08:25:06;16.67;;;12.52;;
21831;SDS011;11078;49.872;6.188;2022-08-19T08:27:36;16.48;;;12.57;;
21831;SDS011;11078;49.872;6.188;2022-08-19T08:30:06;18.27;;;12.27;;
21831;SDS011;11078;49.872;6.188;2022-08-19T08:32:34;14.30;;;11.77;;
21831;SDS011;11078;49.872;6.188;2022-08-19T08:35:03;16.88;;;11.45;;
21831;SDS011;11078;49.872;6.188;2022-08-19T08:37:32;17.10;;;12.38;;
21831;SDS011;11078;49.872;6.188;2022-08-19T08:40:03;16.73;;;11.73;;
21831;SDS011;11078;49.872;6.188;2022-08-19T08:42:36;15.95;;;12.13;;
21831;SDS011;11078;49.872;6.188;2022-08-19T08:45:10;16.63;;;12.25;;
21831;SDS011;11078;49.872;6.188;2022-08-19T08:47:41;15.15;;;11.57;;
21831;SDS011;11078;49.872;6.188;2022-08-19T08:50:13;16.63;;;12.48;;
21831;SDS011;11078;49.872;6.188;2022-08-19T08:52:49;16.25;;;11.85;;
21831;SDS011;11078;49.872;6.188;2022-08-19T08:55:24;12.73;;;10.85;;
21831;SDS011;11078;49.872;6.188;2022-08-19T08:57:59;15.77;;;11.32;;
21831;SDS011;11078;49.872;6.188;2022-08-19T09:00:31;13.90;;;10.85;;
21831;SDS011;11078;49.872;6.188;2022-08-19T09:03:01;13.40;;;10.88;;
21831;SDS011;11078;49.872;6.188;2022-08-19T09:05:35;14.20;;;10.23;;
21831;SDS011;11078;49.872;6.188;2022-08-19T09:08:17;15.20;;;12.05;;
21831;SDS011;11078;49.872;6.188;2022-08-19T09:10:59;16.40;;;10.35;;
21831;SDS011;11078;49.872;6.188;2022-08-19T09:16:31;14.95;;;10.75;;
21831;SDS011;11078;49.872;6.188;2022-08-19T09:19:01;18.15;;;9.80;;
21831;SDS011;11078;49.872;6.188;2022-08-19T09:21:29;16.45;;;9.90;;
21831;SDS011;11078;49.872;6.188;2022-08-19T09:23:55;15.38;;;10.35;;
21831;SDS011;11078;49.872;6.188;2022-08-19T09:26:22;11.55;;;9.25;;
21831;SDS011;11078;49.872;6.188;2022-08-19T09:28:49;15.00;;;9.68;;
21831;SDS011;11078;49.872;6.188;2022-08-19T09:31:19;12.88;;;9.93;;
21831;SDS011;11078;49.872;6.188;2022-08-19T09:33:48;11.98;;;9.38;;
21831;SDS011;11078;49.872;6.188;2022-08-19T09:36:17;12.63;;;9.50;;
21831;SDS011;11078;49.872;6.188;2022-08-19T09:38:44;12.02;;;9.52;;
21831;SDS011;11078;49.872;6.188;2022-08-19T09:41:12;16.00;;;9.63;;
21831;SDS011;11078;49.872;6.188;2022-08-19T09:43:41;12.82;;;9.38;;
21831;SDS011;11078;49.872;6.188;2022-08-19T09:46:09;12.95;;;9.23;;
21831;SDS011;11078;49.872;6.188;2022-08-19T09:48:36;15.15;;;10.00;;
21831;SDS011;11078;49.872;6.188;2022-08-19T09:51:04;14.48;;;10.10;;
21831;SDS011;11078;49.872;6.188;2022-08-19T09:53:33;13.93;;;10.18;;
21831;SDS011;11078;49.872;6.188;2022-08-19T09:56:00;14.50;;;10.07;;
21831;SDS011;11078;49.872;6.188;2022-08-19T09:58:27;12.40;;;9.63;;
21831;SDS011;11078;49.872;6.188;2022-08-19T10:00:55;14.52;;;9.90;;
21831;SDS011;11078;49.872;6.188;2022-08-19T10:03:23;12.20;;;9.05;;
21831;SDS011;11078;49.872;6.188;2022-08-19T10:05:50;13.88;;;9.25;;
21831;SDS011;11078;49.872;6.188;2022-08-19T10:08:19;12.43;;;9.23;;
21831;SDS011;11078;49.872;6.188;2022-08-19T10:10:47;16.10;;;9.32;;
21831;SDS011;11078;49.872;6.188;2022-08-19T10:16:05;14.45;;;9.95;;
21831;SDS011;11078;49.872;6.188;2022-08-19T10:18:52;14.38;;;9.50;;
21831;SDS011;11078;49.872;6.188;2022-08-19T10:21:20;13.93;;;8.85;;
21831;SDS011;11078;49.872;6.188;2022-08-19T10:23:49;13.05;;;9.80;;
21831;SDS011;11078;49.872;6.188;2022-08-19T10:26:19;11.10;;;8.10;;
21831;SDS011;11078;49.872;6.188;2022-08-19T10:29:12;12.73;;;8.93;;
21831;SDS011;11078;49.872;6.188;2022-08-19T10:31:41;15.18;;;9.65;;
21831;SDS011;11078;49.872;6.188;2022-08-19T10:34:07;12.07;;;9.00;;
21831;SDS011;11078;49.872;6.188;2022-08-19T10:36:34;12.82;;;9.27;;
21831;SDS011;11078;49.872;6.188;2022-08-19T10:39:04;15.73;;;9.38;;
21831;SDS011;11078;49.872;6.188;2022-08-19T10:41:33;15.45;;;10.25;;
21831;SDS011;11078;49.872;6.188;2022-08-19T10:44:03;10.48;;;8.15;;
21831;SDS011;11078;49.872;6.188;2022-08-19T10:46:33;14.93;;;8.70;;
21831;SDS011;11078;49.872;6.188;2022-08-19T10:49:03;14.70;;;9.55;;
21831;SDS011;11078;49.872;6.188;2022-08-19T10:51:30;11.27;;;9.25;;
21831;SDS011;11078;49.872;6.188;2022-08-19T10:54:17;14.13;;;10.20;;
21831;SDS011;11078;49.872;6.188;2022-08-19T10:56:44;13.82;;;9.23;;
21831;SDS011;11078;49.872;6.188;2022-08-19T10:59:18;13.88;;;8.45;;
21831;SDS011;11078;49.872;6.188;2022-08-19T11:01:51;11.75;;;8.82;;
21831;SDS011;11078;49.872;6.188;2022-08-19T11:04:18;10.48;;;8.73;;
21831;SDS011;11078;49.872;6.188;2022-08-19T11:06:46;12.43;;;8.98;;
21831;SDS011;11078;49.872;6.188;2022-08-19T11:09:18;14.65;;;10.75;;
21831;SDS011;11078;49.872;6.188;2022-08-19T11:11:47;12.27;;;8.93;;
21831;SDS011;11078;49.872;6.188;2022-08-19T11:14:14;12.00;;;8.77;;
21831;SDS011;11078;49.872;6.188;2022-08-19T11:16:43;12.93;;;7.75;;
21831;SDS011;11078;49.872;6.188;2022-08-19T11:19:09;11.52;;;7.85;;
21831;SDS011;11078;49.872;6.188;2022-08-19T11:21:38;14.40;;;8.32;;
21831;SDS011;11078;49.872;6.188;2022-08-19T11:24:08;10.27;;;7.90;;
21831;SDS011;11078;49.872;6.188;2022-08-19T11:26:36;13.40;;;7.95;;
21831;SDS011;11078;49.872;6.188;2022-08-19T11:29:04;11.02;;;7.93;;
21831;SDS011;11078;49.872;6.188;2022-08-19T11:31:32;11.10;;;6.97;;
21831;SDS011;11078;49.872;6.188;2022-08-19T11:34:01;7.95;;;6.40;;
21831;SDS011;11078;49.872;6.188;2022-08-19T11:36:32;7.05;;;5.68;;
21831;SDS011;11078;49.872;6.188;2022-08-19T11:39:00;6.25;;;4.80;;
21831;SDS011;11078;49.872;6.188;2022-08-19T11:41:27;6.80;;;5.18;;
21831;SDS011;11078;49.872;6.188;2022-08-19T11:43:54;5.97;;;5.38;;
21831;SDS011;11078;49.872;6.188;2022-08-19T11:46:21;7.15;;;5.38;;
21831;SDS011;11078;49.872;6.188;2022-08-19T11:48:49;9.52;;;5.63;;
21831;SDS011;11078;49.872;6.188;2022-08-19T11:51:17;5.88;;;5.20;;
21831;SDS011;11078;49.872;6.188;2022-08-19T11:53:46;6.40;;;5.70;;
21831;SDS011;11078;49.872;6.188;2022-08-19T11:56:13;7.28;;;5.47;;
21831;SDS011;11078;49.872;6.188;2022-08-19T11:58:39;9.27;;;6.13;;
21831;SDS011;11078;49.872;6.188;2022-08-19T12:01:08;10.57;;;5.60;;
21831;SDS011;11078;49.872;6.188;2022-08-19T12:03:37;7.93;;;5.68;;
21831;SDS011;11078;49.872;6.188;2022-08-19T12:06:05;6.93;;;5.50;;
21831;SDS011;11078;49.872;6.188;2022-08-19T12:08:33;6.80;;;6.10;;
21831;SDS011;11078;49.872;6.188;2022-08-19T12:10:59;7.82;;;5.38;;
21831;SDS011;11078;49.872;6.188;2022-08-19T12:13:27;8.95;;;5.47;;
21831;SDS011;11078;49.872;6.188;2022-08-19T12:15:53;6.47;;;4.90;;
21831;SDS011;11078;49.872;6.188;2022-08-19T12:18:19;5.68;;;4.72;;
21831;SDS011;11078;49.872;6.188;2022-08-19T12:20:45;5.47;;;4.60;;
21831;SDS011;11078;49.872;6.188;2022-08-19T12:23:12;5.28;;;4.32;;
21831;SDS011;11078;49.872;6.188;2022-08-19T12:25:43;3.97;;;3.53;;
21831;SDS011;11078;49.872;6.188;2022-08-19T12:28:15;5.00;;;4.00;;
21831;SDS011;11078;49.872;6.188;2022-08-19T12:30:42;4.57;;;3.55;;
21831;SDS011;11078;49.872;6.188;2022-08-19T12:33:08;3.35;;;3.00;;
21831;SDS011;11078;49.872;6.188;2022-08-19T12:35:34;2.97;;;2.63;;
21831;SDS011;11078;49.872;6.188;2022-08-19T12:38:01;11.48;;;3.45;;
21831;SDS011;11078;49.872;6.188;2022-08-19T12:40:28;4.25;;;3.38;;
21831;SDS011;11078;49.872;6.188;2022-08-19T12:42:54;5.70;;;3.60;;
21831;SDS011;11078;49.872;6.188;2022-08-19T12:45:20;4.32;;;3.30;;
21831;SDS011;11078;49.872;6.188;2022-08-19T12:47:47;3.65;;;3.10;;
21831;SDS011;11078;49.872;6.188;2022-08-19T12:50:13;3.30;;;3.00;;
21831;SDS011;11078;49.872;6.188;2022-08-19T12:52:39;4.45;;;3.40;;
21831;SDS011;11078;49.872;6.188;2022-08-19T12:55:07;3.13;;;2.83;;
21831;SDS011;11078;49.872;6.188;2022-08-19T12:57:34;4.45;;;2.55;;
21831;SDS011;11078;49.872;6.188;2022-08-19T13:00:09;2.80;;;2.10;;
21831;SDS011;11078;49.872;6.188;2022-08-19T13:02:56;5.75;;;2.03;;
21831;SDS011;11078;49.872;6.188;2022-08-19T13:05:23;2.95;;;1.90;;
21831;SDS011;11078;49.872;6.188;2022-08-19T13:07:52;2.50;;;1.98;;
21831;SDS011;11078;49.872;6.188;2022-08-19T13:10:21;2.92;;;1.50;;
21831;SDS011;11078;49.872;6.188;2022-08-19T13:12:50;1.50;;;1.33;;
21831;SDS011;11078;49.872;6.188;2022-08-19T13:15:18;1.27;;;1.17;;
21831;SDS011;11078;49.872;6.188;2022-08-19T13:17:47;1.55;;;0.85;;
21831;SDS011;11078;49.872;6.188;2022-08-19T13:20:15;0.93;;;0.93;;
21831;SDS011;11078;49.872;6.188;2022-08-19T13:22:44;1.00;;;0.90;;
21831;SDS011;11078;49.872;6.188;2022-08-19T13:25:11;0.80;;;0.80;;
21831;SDS011;11078;49.872;6.188;2022-08-19T13:27:38;0.80;;;0.80;;
21831;SDS011;11078;49.872;6.188;2022-08-19T13:30:06;0.88;;;0.77;;
21831;SDS011;11078;49.872;6.188;2022-08-19T13:32:49;0.40;;;0.40;;
21831;SDS011;11078;49.872;6.188;2022-08-19T13:35:31;1.38;;;0.50;;
21831;SDS011;11078;49.872;6.188;2022-08-19T13:37:57;1.05;;;0.60;;
21831;SDS011;11078;49.872;6.188;2022-08-19T13:40:24;3.10;;;0.40;;
21831;SDS011;11078;49.872;6.188;2022-08-19T13:42:52;0.93;;;0.50;;
21831;SDS011;11078;49.872;6.188;2022-08-19T13:45:20;0.55;;;0.40;;
21831;SDS011;11078;49.872;6.188;2022-08-19T13:47:49;0.63;;;0.60;;
21831;SDS011;11078;49.872;6.188;2022-08-19T13:50:18;0.30;;;0.30;;
21831;SDS011;11078;49.872;6.188;2022-08-19T13:52:47;0.30;;;0.30;;
21831;SDS011;11078;49.872;6.188;2022-08-19T13:55:14;0.50;;;0.50;;
21831;SDS011;11078;49.872;6.188;2022-08-19T13:57:40;0.95;;;0.57;;
21831;SDS011;11078;49.872;6.188;2022-08-19T14:00:08;0.43;;;0.43;;
21831;SDS011;11078;49.872;6.188;2022-08-19T14:02:37;0.93;;;0.60;;
21831;SDS011;11078;49.872;6.188;2022-08-19T14:05:05;0.90;;;0.50;;
21831;SDS011;11078;49.872;6.188;2022-08-19T14:07:34;3.83;;;0.50;;
21831;SDS011;11078;49.872;6.188;2022-08-19T14:10:01;0.35;;;0.35;;
21831;SDS011;11078;49.872;6.188;2022-08-19T14:12:28;0.50;;;0.50;;
21831;SDS011;11078;49.872;6.188;2022-08-19T14:14:54;1.10;;;0.40;;
21831;SDS011;11078;49.872;6.188;2022-08-19T14:17:20;1.35;;;0.40;;
21831;SDS011;11078;49.872;6.188;2022-08-19T14:19:46;0.30;;;0.30;;
21831;SDS011;11078;49.872;6.188;2022-08-19T14:22:12;0.75;;;0.45;;
21831;SDS011;11078;49.872;6.188;2022-08-19T14:24:38;2.35;;;0.40;;
21831;SDS011;11078;49.872;6.188;2022-08-19T14:27:05;0.38;;;0.28;;
21831;SDS011;11078;49.872;6.188;2022-08-19T14:29:31;0.30;;;0.30;;
21831;SDS011;11078;49.872;6.188;2022-08-19T14:31:58;0.30;;;0.30;;
21831;SDS011;11078;49.872;6.188;2022-08-19T14:34:25;1.02;;;0.30;;
21831;SDS011;11078;49.872;6.188;2022-08-19T14:36:52;3.55;;;1.48;;
21831;SDS011;11078;49.872;6.188;2022-08-19T14:39:18;0.80;;;0.40;;
21831;SDS011;11078;49.872;6.188;2022-08-19T14:41:44;1.20;;;0.52;;
21831;SDS011;11078;49.872;6.188;2022-08-19T14:44:10;0.90;;;0.50;;
21831;SDS011;11078;49.872;6.188;2022-08-19T14:46:38;0.88;;;0.30;;
21831;SDS011;11078;49.872;6.188;2022-08-19T14:49:05;0.30;;;0.30;;
21831;SDS011;11078;49.872;6.188;2022-08-19T14:51:32;0.40;;;0.40;;
21831;SDS011;11078;49.872;6.188;2022-08-19T14:53:58;6.07;;;0.60;;
21831;SDS011;11078;49.872;6.188;2022-08-19T14:56:26;0.40;;;0.40;;